Time;durP1;ratioP1;P1;durP2;ratioP2;P2;SDS_P1;SDS_P2;PMS_P1;PMS_P2;Temp;Humidity;BMP_temperature;BMP_pressure;BME280_temperature;BME280_humidity;BME280_pressure;Samples;Min_cycle;Max_cycle;Signal;HPM_P1;HPM_P2
2022/10/16 00:01:32;;;;;;;;;;;17.30;99.90;;;;;;5037254;28;20412;-85
2022/10/16 00:03:59;;;;;;;;;;;17.30;99.90;;;;;;5037562;28;20010;-84
2022/10/16 00:06:25;;;;;;;;;;;17.30;99.90;;;;;;5049550;28;19944;-85
2022/10/16 00:08:51;;;;;;;;;;;17.10;99.90;;;;;;5038768;28;19917;-86
2022/10/16 00:11:18;;;;;;;;;;;17.10;99.90;;;;;;5049431;28;19921;-85
2022/10/16 00:13:45;;;;;;;;;;;17.10;99.90;;;;;;5017433;28;19921;-86
2022/10/16 00:16:11;;;;;;;;;;;17.10;99.90;;;;;;5032257;28;19943;-86
2022/10/16 00:18:37;;;;;;;;;;;17.10;99.90;;;;;;5040937;28;19921;-86
2022/10/16 00:21:07;;;;;;;;;;;17.00;99.90;;;;;;5049478;28;19959;-86
2022/10/16 00:23:33;;;;;;;;;;;17.10;99.90;;;;;;5036781;28;19913;-85
2022/10/16 00:25:59;;;;;;;;;;;17.10;99.90;;;;;;5034533;28;20005;-86
2022/10/16 00:28:25;;;;;;;;;;;17.10;99.90;;;;;;5054947;28;19959;-86
2022/10/16 00:30:51;;;;;;;;;;;17.20;99.90;;;;;;5050496;28;19949;-86
2022/10/16 00:33:17;;;;;;;;;;;17.20;99.90;;;;;;5032349;28;19928;-86
2022/10/16 00:35:43;;;;;;;;;;;17.20;99.90;;;;;;5045008;28;20650;-86
2022/10/16 00:38:09;;;;;;;;;;;17.10;99.90;;;;;;5038230;28;19923;-86
2022/10/16 00:40:34;;;;;;;;;;;17.10;99.90;;;;;;5055705;28;19928;-85
2022/10/16 00:43:00;;;;;;;;;;;17.10;99.90;;;;;;5054189;28;19913;-86
2022/10/16 00:45:25;;;;;;;;;;;17.00;99.90;;;;;;5062720;28;19963;-86
2022/10/16 00:47:51;;;;;;;;;;;17.00;99.90;;;;;;5040194;28;20651;-85
2022/10/16 00:50:23;;;;;;;;;;;17.00;99.90;;;;;;5055140;28;19920;-86
2022/10/16 00:52:50;;;;;;;;;;;17.00;99.90;;;;;;5049477;28;19924;-86
2022/10/16 00:55:16;;;;;;;;;;;16.90;99.90;;;;;;5061493;28;19921;-86
2022/10/16 00:57:42;;;;;;;;;;;16.80;99.90;;;;;;5052534;28;19923;-86
2022/10/16 01:00:09;;;;;;;;;;;16.80;99.90;;;;;;5048839;28;20393;-84
2022/10/16 01:02:34;;;;;;;;;;;16.70;99.90;;;;;;5047677;28;19921;-87
2022/10/16 01:05:00;;;;;;;;;;;16.70;99.90;;;;;;5047729;28;20642;-85
2022/10/16 01:07:38;;;;;;;;;;;16.80;99.90;;;;;;5049680;28;19984;-86
2022/10/16 01:10:13;;;;;;;;;;;16.70;99.90;;;;;;5049141;28;19917;-86
2022/10/16 01:12:44;;;;;;;;;;;16.70;99.90;;;;;;5047856;28;19929;-87
2022/10/16 01:15:14;;;;;;;;;;;16.70;99.90;;;;;;5049562;28;19917;-85
2022/10/16 01:17:39;;;;;;;;;;;16.70;99.90;;;;;;5049027;28;19920;-86
2022/10/16 01:20:05;;;;;;;;;;;16.60;99.90;;;;;;5056258;28;19920;-87
2022/10/16 01:22:50;;;;;;;;;;;16.50;99.90;;;;;;5044511;28;19921;-87
2022/10/16 01:25:34;;;;;;;;;;;16.50;99.90;;;;;;5051452;28;19917;-87
2022/10/16 01:28:01;;;;;;;;;;;16.50;99.90;;;;;;5050882;28;19962;-85
2022/10/16 01:30:29;;;;;;;;;;;16.40;99.90;;;;;;5044159;28;19950;-87
2022/10/16 01:32:56;;;;;;;;;;;16.40;99.90;;;;;;5050256;28;19927;-87
2022/10/16 01:35:28;;;;;;;;;;;16.40;99.90;;;;;;5052869;28;19916;-87
2022/10/16 01:38:09;;;;;;;;;;;16.40;99.90;;;;;;5048956;28;19920;-87
2022/10/16 01:40:36;;;;;;;;;;;16.20;99.90;;;;;;5031912;28;19974;-88
2022/10/16 01:43:05;;;;;;;;;;;16.10;99.90;;;;;;5050684;28;19924;-88
2022/10/16 01:45:31;;;;;;;;;;;16.20;99.90;;;;;;5037646;28;19920;-88
2022/10/16 01:47:58;;;;;;;;;;;16.10;99.90;;;;;;5039205;28;19963;-89
2022/10/16 01:50:24;;;;;;;;;;;16.10;99.90;;;;;;5033358;28;19996;-88
2022/10/16 01:52:51;;;;;;;;;;;16.20;99.90;;;;;;5038666;28;20055;-89
2022/10/16 01:55:20;;;;;;;;;;;16.30;99.90;;;;;;5051078;28;19920;-88
2022/10/16 01:57:47;;;;;;;;;;;16.30;99.90;;;;;;5058268;28;19919;-88
2022/10/16 02:00:13;;;;;;;;;;;16.20;99.90;;;;;;5047582;28;19972;-88
2022/10/16 02:02:44;;;;;;;;;;;16.10;99.90;;;;;;5026964;28;19916;-88
2022/10/16 02:05:22;;;;;;;;;;;16.00;99.90;;;;;;5036499;28;19998;-88
2022/10/16 02:07:49;;;;;;;;;;;16.00;99.90;;;;;;5046462;28;20395;-88
2022/10/16 02:10:14;;;;;;;;;;;16.00;99.90;;;;;;5033357;28;19912;-88
2022/10/16 02:12:42;;;;;;;;;;;15.80;99.90;;;;;;5043259;28;19929;-88
2022/10/16 02:15:08;;;;;;;;;;;15.90;99.90;;;;;;5035890;28;19913;-87
2022/10/16 02:17:34;;;;;;;;;;;15.90;99.90;;;;;;5030089;28;19917;-86
2022/10/16 02:20:00;;;;;;;;;;;15.80;99.90;;;;;;5049942;28;19919;-87
2022/10/16 02:22:26;;;;;;;;;;;15.70;99.90;;;;;;5032567;28;19916;-86
2022/10/16 02:24:54;;;;;;;;;;;15.60;99.90;;;;;;5050582;28;19946;-87
2022/10/16 02:27:24;;;;;;;;;;;15.60;99.90;;;;;;5052794;28;20003;-87
2022/10/16 02:29:53;;;;;;;;;;;15.70;99.90;;;;;;5050797;28;19951;-88
2022/10/16 02:32:24;;;;;;;;;;;15.70;99.90;;;;;;5022788;28;19921;-86
2022/10/16 02:34:50;;;;;;;;;;;15.80;99.90;;;;;;5038708;28;20038;-87
2022/10/16 02:37:17;;;;;;;;;;;15.70;99.90;;;;;;5038484;28;19923;-87
2022/10/16 02:39:43;;;;;;;;;;;15.70;99.90;;;;;;5030718;28;19913;-86
2022/10/16 02:42:12;;;;;;;;;;;15.90;99.90;;;;;;5052455;28;19919;-87
2022/10/16 02:44:37;;;;;;;;;;;15.90;99.90;;;;;;5033002;28;19917;-88
2022/10/16 02:47:03;;;;;;;;;;;16.00;99.90;;;;;;5048865;28;19919;-87
2022/10/16 02:49:28;;;;;;;;;;;16.20;99.90;;;;;;5046146;28;19921;-87
2022/10/16 02:51:54;;;;;;;;;;;16.10;99.90;;;;;;5044947;28;19921;-85
2022/10/16 02:54:20;;;;;;;;;;;16.20;99.90;;;;;;5043421;28;20333;-87
2022/10/16 02:56:45;;;;;;;;;;;16.20;99.90;;;;;;5052783;28;19987;-86
2022/10/16 02:59:11;;;;;;;;;;;16.10;99.90;;;;;;5044803;28;19955;-85
2022/10/16 03:01:36;;;;;;;;;;;16.10;99.90;;;;;;5048556;28;20385;-85
2022/10/16 03:04:02;;;;;;;;;;;16.40;99.90;;;;;;5051128;28;19927;-88
2022/10/16 03:06:27;;;;;;;;;;;16.30;99.90;;;;;;5029419;28;20004;-89
2022/10/16 03:08:53;;;;;;;;;;;16.30;99.90;;;;;;5040655;28;19921;-87
2022/10/16 03:11:18;;;;;;;;;;;16.20;99.90;;;;;;5051287;28;20007;-88
2022/10/16 03:13:44;;;;;;;;;;;16.20;99.90;;;;;;5047804;28;19917;-88
2022/10/16 03:16:09;;;;;;;;;;;16.20;99.90;;;;;;5044808;28;20291;-88
2022/10/16 03:18:35;;;;;;;;;;;16.20;99.90;;;;;;5057812;28;19966;-89
2022/10/16 03:21:00;;;;;;;;;;;16.20;99.90;;;;;;5033047;28;19923;-88
2022/10/16 03:23:26;;;;;;;;;;;16.20;99.90;;;;;;5056497;28;20392;-88
2022/10/16 03:25:52;;;;;;;;;;;16.10;99.90;;;;;;5033448;28;20398;-88
2022/10/16 03:28:17;;;;;;;;;;;16.10;99.90;;;;;;5029989;28;20003;-88
2022/10/16 03:30:43;;;;;;;;;;;16.10;99.90;;;;;;5036084;28;19916;-87
2022/10/16 03:33:09;;;;;;;;;;;16.10;99.90;;;;;;5039753;28;19966;-88
2022/10/16 03:35:35;;;;;;;;;;;16.10;99.90;;;;;;5050749;28;19983;-88
2022/10/16 03:38:00;;;;;;;;;;;16.20;99.90;;;;;;5039850;28;20292;-88
2022/10/16 03:40:26;;;;;;;;;;;16.10;99.90;;;;;;5035430;28;19917;-88
2022/10/16 03:42:51;;;;;;;;;;;16.10;99.90;;;;;;5053344;28;19923;-87
2022/10/16 03:45:17;;;;;;;;;;;16.20;99.90;;;;;;5051724;28;20260;-86
2022/10/16 03:47:42;;;;;;;;;;;16.20;99.90;;;;;;5041238;28;19917;-87
2022/10/16 03:50:08;;;;;;;;;;;16.10;99.90;;;;;;5052726;28;19917;-87
2022/10/16 03:52:34;;;;;;;;;;;16.20;99.90;;;;;;5033433;28;19964;-85
2022/10/16 03:54:59;;;;;;;;;;;16.20;99.90;;;;;;5058669;28;19916;-84
2022/10/16 03:57:25;;;;;;;;;;;16.30;99.90;;;;;;5036026;28;20687;-85
2022/10/16 03:59:50;;;;;;;;;;;16.20;99.90;;;;;;5039882;28;19916;-85
2022/10/16 04:02:16;;;;;;;;;;;16.20;99.90;;;;;;5031310;28;19927;-85
2022/10/16 04:04:42;;;;;;;;;;;16.20;99.90;;;;;;5051406;28;19935;-84
2022/10/16 04:07:07;;;;;;;;;;;16.30;99.90;;;;;;5030266;28;19912;-85
2022/10/16 04:09:33;;;;;;;;;;;16.30;99.90;;;;;;5050203;28;19959;-88
2022/10/16 04:11:58;;;;;;;;;;;16.20;99.90;;;;;;5027797;28;19924;-89
2022/10/16 04:14:24;;;;;;;;;;;16.20;99.90;;;;;;5032029;28;20590;-88
2022/10/16 04:16:49;;;;;;;;;;;16.20;99.90;;;;;;5029585;28;20014;-88
2022/10/16 04:19:15;;;;;;;;;;;16.30;99.90;;;;;;5047711;28;19928;-88
2022/10/16 04:21:40;;;;;;;;;;;16.20;99.90;;;;;;5062088;28;19928;-89
2022/10/16 04:24:06;;;;;;;;;;;16.20;99.90;;;;;;5054005;28;19917;-88
2022/10/16 04:26:31;;;;;;;;;;;16.10;99.90;;;;;;5034421;28;19919;-88
2022/10/16 04:28:57;;;;;;;;;;;16.10;99.90;;;;;;5033004;28;20020;-88
2022/10/16 04:31:22;;;;;;;;;;;16.10;99.90;;;;;;5056401;28;19920;-91
2022/10/16 04:33:48;;;;;;;;;;;16.20;99.90;;;;;;5034426;28;19948;-88
2022/10/16 04:36:13;;;;;;;;;;;16.10;99.90;;;;;;5032481;28;19928;-87
2022/10/16 04:38:39;;;;;;;;;;;16.00;99.90;;;;;;5050076;28;20372;-88
2022/10/16 04:41:06;;;;;;;;;;;16.00;99.90;;;;;;5031243;28;19917;-87
2022/10/16 04:43:32;;;;;;;;;;;16.00;99.90;;;;;;5045186;28;19920;-87
2022/10/16 04:45:57;;;;;;;;;;;16.00;99.90;;;;;;5042398;28;19999;-88
2022/10/16 04:48:23;;;;;;;;;;;15.80;99.90;;;;;;5030134;28;19954;-87
2022/10/16 04:50:48;;;;;;;;;;;15.90;99.90;;;;;;5050132;28;20008;-86
2022/10/16 04:53:14;;;;;;;;;;;16.00;99.90;;;;;;5057971;28;20700;-88
2022/10/16 04:55:41;;;;;;;;;;;15.90;99.90;;;;;;5038262;28;19921;-89
2022/10/16 04:58:07;;;;;;;;;;;15.90;99.90;;;;;;5044742;28;19924;-88
2022/10/16 05:00:33;;;;;;;;;;;15.80;99.90;;;;;;5036120;28;19924;-89
2022/10/16 05:03:00;;;;;;;;;;;15.70;99.90;;;;;;5032712;28;19923;-88
2022/10/16 05:05:26;;;;;;;;;;;15.80;99.90;;;;;;5048614;28;20004;-88
2022/10/16 05:07:52;;;;;;;;;;;15.80;99.90;;;;;;5060743;28;19917;-89
2022/10/16 05:10:17;;;;;;;;;;;15.90;99.90;;;;;;5054947;28;19920;-89
2022/10/16 05:12:43;;;;;;;;;;;15.90;99.90;;;;;;5034201;28;19963;-88
2022/10/16 05:15:09;;;;;;;;;;;15.90;99.90;;;;;;5055128;28;20007;-89
2022/10/16 05:17:34;;;;;;;;;;;15.80;99.90;;;;;;5030969;28;19967;-90
2022/10/16 05:20:00;;;;;;;;;;;15.80;99.90;;;;;;5050811;28;20454;-91
2022/10/16 05:22:25;;;;;;;;;;;15.80;99.90;;;;;;5040789;28;19917;-91
2022/10/16 05:24:51;;;;;;;;;;;15.70;99.90;;;;;;5034846;28;19917;-91
2022/10/16 05:27:19;;;;;;;;;;;15.70;99.90;;;;;;5030410;28;19986;-90
2022/10/16 05:29:46;;;;;;;;;;;15.60;99.90;;;;;;5056634;28;20003;-89
2022/10/16 05:32:12;;;;;;;;;;;15.60;99.90;;;;;;5029725;28;19966;-86
2022/10/16 05:34:37;;;;;;;;;;;15.60;99.90;;;;;;5047692;28;19917;-86
2022/10/16 05:37:03;;;;;;;;;;;15.70;99.90;;;;;;5050557;28;20322;-86
2022/10/16 05:39:28;;;;;;;;;;;15.70;99.90;;;;;;5051964;28;19917;-86
2022/10/16 05:41:54;;;;;;;;;;;15.90;99.90;;;;;;5051925;28;19917;-84
2022/10/16 05:44:20;;;;;;;;;;;15.80;99.90;;;;;;5036747;28;20003;-89
2022/10/16 05:46:46;;;;;;;;;;;15.60;99.90;;;;;;5028694;28;19916;-88
2022/10/16 05:49:11;;;;;;;;;;;15.80;99.90;;;;;;5019371;28;19924;-88
2022/10/16 05:51:37;;;;;;;;;;;15.90;99.90;;;;;;5050423;28;19925;-86
2022/10/16 05:54:02;;;;;;;;;;;15.90;99.90;;;;;;5059286;28;20647;-87
2022/10/16 05:56:28;;;;;;;;;;;15.80;99.90;;;;;;5061053;28;20346;-82
2022/10/16 05:58:54;;;;;;;;;;;15.60;99.90;;;;;;5047116;28;19917;-84
2022/10/16 06:01:23;;;;;;;;;;;15.80;99.90;;;;;;5015055;28;19926;-85
2022/10/16 06:03:52;;;;;;;;;;;15.70;99.90;;;;;;5041771;28;19921;-83
2022/10/16 06:06:20;;;;;;;;;;;15.70;99.90;;;;;;5032720;28;19921;-84
2022/10/16 06:08:46;;;;;;;;;;;15.60;99.90;;;;;;5014431;28;19917;-83
2022/10/16 06:11:13;;;;;;;;;;;15.60;99.90;;;;;;5036610;28;19923;-81
2022/10/16 06:13:41;;;;;;;;;;;15.80;99.90;;;;;;5026186;28;19925;-84
2022/10/16 06:16:07;;;;;;;;;;;15.70;99.90;;;;;;5014775;28;19921;-83
2022/10/16 06:18:32;;;;;;;;;;;15.70;99.90;;;;;;5022898;28;19917;-83
2022/10/16 06:20:58;;;;;;;;;;;15.70;99.90;;;;;;5020030;28;19943;-84
2022/10/16 06:23:25;;;;;;;;;;;15.80;99.90;;;;;;5016263;28;20711;-83
2022/10/16 06:25:50;;;;;;;;;;;15.90;99.90;;;;;;5016597;28;19939;-82
2022/10/16 06:28:16;;;;;;;;;;;15.80;99.90;;;;;;5034044;28;19916;-82
2022/10/16 06:30:43;;;;;;;;;;;15.90;99.90;;;;;;5036726;28;20407;-84
2022/10/16 06:33:09;;;;;;;;;;;16.00;99.90;;;;;;5011884;28;19921;-83
2022/10/16 06:35:35;;;;;;;;;;;16.20;99.90;;;;;;5022719;28;19924;-88
2022/10/16 06:38:01;;;;;;;;;;;16.30;99.90;;;;;;5018109;28;19917;-88
2022/10/16 06:40:26;;;;;;;;;;;16.30;99.90;;;;;;5029286;28;20690;-83
2022/10/16 06:42:54;;;;;;;;;;;16.30;99.90;;;;;;5035221;28;19924;-83
2022/10/16 06:45:20;;;;;;;;;;;16.30;99.90;;;;;;5047351;28;19917;-83
2022/10/16 06:47:45;;;;;;;;;;;16.30;99.90;;;;;;5041718;28;19917;-80
2022/10/16 06:50:11;;;;;;;;;;;16.60;99.90;;;;;;5034491;28;19920;-82
2022/10/16 06:52:36;;;;;;;;;;;16.90;99.90;;;;;;5022731;28;19927;-83
2022/10/16 06:55:02;;;;;;;;;;;17.80;99.90;;;;;;5043767;28;19917;-83
2022/10/16 06:57:28;;;;;;;;;;;18.50;99.90;;;;;;5032235;28;19917;-83
2022/10/16 06:59:54;;;;;;;;;;;18.60;99.90;;;;;;5022134;28;19921;-82
2022/10/16 07:02:19;;;;;;;;;;;19.50;99.90;;;;;;5044137;28;19921;-81
2022/10/16 07:04:45;;;;;;;;;;;19.60;99.90;;;;;;5047489;28;20376;-81
2022/10/16 07:07:10;;;;;;;;;;;20.00;99.90;;;;;;5047062;28;20388;-82
2022/10/16 07:09:36;;;;;;;;;;;19.30;99.90;;;;;;5054046;28;19920;-82
2022/10/16 07:12:01;;;;;;;;;;;19.30;99.90;;;;;;5020709;28;19925;-81
2022/10/16 07:14:27;;;;;;;;;;;20.60;99.90;;;;;;5041308;28;20507;-80
2022/10/16 07:16:53;;;;;;;;;;;21.20;99.90;;;;;;5048483;28;19912;-80
2022/10/16 07:19:18;;;;;;;;;;;21.60;99.90;;;;;;5046606;28;19952;-81
2022/10/16 07:21:44;;;;;;;;;;;21.50;99.90;;;;;;5035109;28;19967;-81
2022/10/16 07:24:16;;;;;;;;;;;20.70;99.90;;;;;;5048351;28;19917;-82
2022/10/16 07:26:42;;;;;;;;;;;19.80;99.90;;;;;;5050746;28;19916;-82
2022/10/16 07:29:13;;;;;;;;;;;19.20;99.90;;;;;;5051855;28;20458;-81
2022/10/16 07:31:38;;;;;;;;;;;20.60;99.90;;;;;;5029576;28;19923;-82
2022/10/16 07:34:04;;;;;;;;;;;21.30;99.90;;;;;;5047341;28;19917;-82
2022/10/16 07:36:30;;;;;;;;;;;21.90;99.90;;;;;;5047768;28;19913;-82
2022/10/16 07:38:55;;;;;;;;;;;22.20;99.90;;;;;;5047777;28;19956;-82
2022/10/16 07:41:21;;;;;;;;;;;22.60;99.90;;;;;;5047532;28;19920;-83
2022/10/16 07:43:47;;;;;;;;;;;22.60;99.90;;;;;;5032161;28;19924;-82
2022/10/16 07:46:13;;;;;;;;;;;22.50;99.90;;;;;;5038141;28;20046;-82
2022/10/16 07:48:39;;;;;;;;;;;22.70;99.90;;;;;;5051949;28;19916;-83
2022/10/16 07:51:05;;;;;;;;;;;22.80;99.90;;;;;;5049817;28;19920;-83
2022/10/16 07:53:32;;;;;;;;;;;23.20;99.90;;;;;;5034063;28;19921;-83
2022/10/16 07:55:59;;;;;;;;;;;23.20;99.90;;;;;;5033796;28;19924;-83
2022/10/16 07:58:24;;;;;;;;;;;23.50;99.90;;;;;;5051377;28;20003;-83
2022/10/16 08:00:50;;;;;;;;;;;23.90;99.90;;;;;;5050951;28;20027;-83
2022/10/16 08:03:15;;;;;;;;;;;24.30;99.90;;;;;;5039393;28;19951;-83
2022/10/16 08:05:41;;;;;;;;;;;24.00;99.90;;;;;;5051034;28;19913;-83
2022/10/16 08:08:11;;;;;;;;;;;24.10;99.90;;;;;;5051595;28;19916;-83
2022/10/16 08:10:36;;;;;;;;;;;24.10;99.80;;;;;;5051024;28;20318;-83
2022/10/16 08:13:02;;;;;;;;;;;24.10;99.40;;;;;;5051160;28;19971;-83
2022/10/16 08:15:28;;;;;;;;;;;24.40;99.00;;;;;;5033302;28;19927;-83
2022/10/16 08:17:57;;;;;;;;;;;24.50;99.50;;;;;;5051181;28;19913;-83
2022/10/16 08:20:22;;;;;;;;;;;24.90;97.70;;;;;;5024704;28;20319;-83
2022/10/16 08:22:48;;;;;;;;;;;25.10;97.30;;;;;;5045391;28;19950;-83
2022/10/16 08:25:14;;;;;;;;;;;25.30;96.20;;;;;;5033044;28;19948;-83
2022/10/16 08:27:39;;;;;;;;;;;25.30;95.70;;;;;;5050256;28;19922;-83
2022/10/16 08:30:05;;;;;;;;;;;25.50;96.30;;;;;;5050465;28;19913;-83
2022/10/16 08:32:31;;;;;;;;;;;25.30;95.40;;;;;;5033123;28;19924;-84
2022/10/16 08:34:56;;;;;;;;;;;25.50;95.20;;;;;;5032735;28;20752;-83
2022/10/16 08:37:22;;;;;;;;;;;25.40;95.30;;;;;;5050374;28;20018;-83
2022/10/16 08:39:47;;;;;;;;;;;25.40;94.90;;;;;;5049861;28;20015;-83
2022/10/16 08:42:13;;;;;;;;;;;25.00;94.90;;;;;;5050422;28;20023;-83
2022/10/16 08:44:57;;;;;;;;;;;25.30;94.10;;;;;;5051169;28;19948;-84
2022/10/16 08:47:25;;;;;;;;;;;24.90;95.30;;;;;;5032079;28;20344;-83
2022/10/16 08:49:53;;;;;;;;;;;25.20;93.90;;;;;;5053322;28;19913;-82
2022/10/16 08:52:18;;;;;;;;;;;25.10;93.90;;;;;;5055461;28;19955;-82
2022/10/16 08:54:47;;;;;;;;;;;25.30;94.50;;;;;;5049728;28;20694;-83
2022/10/16 08:57:23;;;;;;;;;;;25.80;93.40;;;;;;5033038;28;19916;-83
2022/10/16 08:59:49;;;;;;;;;;;25.50;93.80;;;;;;5031896;28;19988;-84
2022/10/16 09:02:31;;;;;;;;;;;25.70;93.70;;;;;;5051654;28;19968;-82
2022/10/16 09:05:09;;;;;;;;;;;25.80;94.90;;;;;;5039458;28;19917;-82
2022/10/16 09:07:39;;;;;;;;;;;25.90;92.50;;;;;;5042396;28;19948;-83
2022/10/16 09:10:19;;;;;;;;;;;26.00;92.00;;;;;;5049943;28;19909;-83
2022/10/16 09:12:54;;;;;;;;;;;25.70;92.30;;;;;;5032166;28;19960;-82
2022/10/16 09:15:40;;;;;;;;;;;25.80;91.70;;;;;;5032285;28;19912;-83
2022/10/16 09:18:24;;;;;;;;;;;25.30;92.20;;;;;;5023180;28;20430;-82
2022/10/16 09:20:53;;;;;;;;;;;25.00;92.60;;;;;;5028314;28;19974;-83
2022/10/16 09:23:22;;;;;;;;;;;25.10;92.90;;;;;;5049654;28;19987;-83
2022/10/16 09:25:48;;;;;;;;;;;25.20;91.60;;;;;;5049040;28;19936;-83
2022/10/16 09:28:14;;;;;;;;;;;25.10;92.20;;;;;;5031306;28;19920;-83
2022/10/16 09:30:40;;;;;;;;;;;24.60;92.90;;;;;;5049073;28;20385;-83
2022/10/16 09:33:07;;;;;;;;;;;24.30;93.20;;;;;;5049271;28;19916;-83
2022/10/16 09:35:37;;;;;;;;;;;24.30;94.30;;;;;;5049130;28;19940;-83
2022/10/16 09:38:03;;;;;;;;;;;24.80;93.30;;;;;;5049526;28;19913;-82
2022/10/16 09:40:30;;;;;;;;;;;24.90;92.20;;;;;;5049014;28;19913;-83
2022/10/16 09:43:11;;;;;;;;;;;24.90;93.50;;;;;;5049086;28;20032;-83
2022/10/16 09:45:37;;;;;;;;;;;24.90;92.50;;;;;;5049389;28;19920;-83
2022/10/16 09:48:11;;;;;;;;;;;24.80;92.40;;;;;;5049476;28;20457;-82
2022/10/16 09:50:36;;;;;;;;;;;24.40;92.70;;;;;;5049623;28;19913;-83
2022/10/16 09:53:22;;;;;;;;;;;24.80;93.00;;;;;;5049350;28;19916;-82
2022/10/16 09:55:52;;;;;;;;;;;24.80;93.10;;;;;;5043078;28;19917;-82
2022/10/16 09:58:17;;;;;;;;;;;24.60;92.90;;;;;;5048276;28;20063;-82
2022/10/16 10:00:49;;;;;;;;;;;24.70;92.80;;;;;;5029952;28;20027;-82
2022/10/16 10:03:41;;;;;;;;;;;24.50;92.40;;;;;;5048445;28;19913;-82
2022/10/16 10:06:16;;;;;;;;;;;24.20;93.50;;;;;;5044922;28;19913;-83
2022/10/16 10:08:51;;;;;;;;;;;24.40;92.40;;;;;;5048867;28;21045;-82
2022/10/16 10:11:17;;;;;;;;;;;24.50;92.90;;;;;;5050647;28;19989;-81
2022/10/16 10:13:43;;;;;;;;;;;24.40;92.80;;;;;;5055582;28;20015;-82
2022/10/16 10:16:08;;;;;;;;;;;24.40;93.50;;;;;;5053105;28;19913;-81
2022/10/16 10:18:34;;;;;;;;;;;24.40;93.60;;;;;;5054134;28;19918;-82
2022/10/16 10:21:00;;;;;;;;;;;24.60;92.30;;;;;;5039285;28;20505;-81
2022/10/16 10:23:27;;;;;;;;;;;24.50;92.20;;;;;;5057815;28;20296;-79
2022/10/16 10:25:56;;;;;;;;;;;24.40;93.40;;;;;;5037741;28;19974;-80
2022/10/16 10:28:32;;;;;;;;;;;24.20;92.40;;;;;;5029255;28;19916;-81
2022/10/16 10:31:05;;;;;;;;;;;24.30;92.60;;;;;;5029615;28;19960;-81
2022/10/16 10:33:33;;;;;;;;;;;24.30;92.60;;;;;;5047100;28;19916;-81
2022/10/16 10:36:12;;;;;;;;;;;24.60;92.90;;;;;;5047045;28;19917;-80
2022/10/16 10:38:41;;;;;;;;;;;24.60;92.00;;;;;;5036850;28;20007;-81
2022/10/16 10:41:14;;;;;;;;;;;24.40;92.20;;;;;;5029406;28;19913;-81
2022/10/16 10:43:55;;;;;;;;;;;24.40;94.00;;;;;;5046712;28;19948;-81
2022/10/16 10:46:40;;;;;;;;;;;24.40;91.90;;;;;;5050340;28;19966;-81
2022/10/16 10:49:28;;;;;;;;;;;24.30;93.60;;;;;;5047825;28;19919;-81
2022/10/16 10:52:00;;;;;;;;;;;24.30;92.30;;;;;;5034146;28;19920;-81
2022/10/16 10:54:31;;;;;;;;;;;24.20;92.40;;;;;;5029948;28;19972;-80
2022/10/16 10:56:59;;;;;;;;;;;24.20;93.10;;;;;;5047939;28;20600;-80
2022/10/16 10:59:40;;;;;;;;;;;24.20;92.20;;;;;;5051475;28;20003;-80
2022/10/16 11:02:21;;;;;;;;;;;24.20;92.30;;;;;;5029304;28;20012;-81
2022/10/16 11:04:55;;;;;;;;;;;24.20;92.20;;;;;;5056937;28;19970;-81
2022/10/16 11:07:24;;;;;;;;;;;24.20;92.30;;;;;;5054818;28;19913;-81
2022/10/16 11:09:55;;;;;;;;;;;24.30;92.70;;;;;;5033142;28;19922;-80
2022/10/16 11:12:27;;;;;;;;;;;24.30;92.20;;;;;;5047849;28;19928;-80
2022/10/16 11:15:04;;;;;;;;;;;24.30;93.10;;;;;;5047478;28;19912;-81
2022/10/16 11:17:31;;;;;;;;;;;24.30;92.80;;;;;;5030869;28;19975;-79
2022/10/16 11:20:00;;;;;;;;;;;24.20;92.70;;;;;;5047630;28;20367;-78
2022/10/16 11:22:40;;;;;;;;;;;24.20;93.10;;;;;;5029252;28;19920;-79
2022/10/16 11:25:05;;;;;;;;;;;24.30;93.50;;;;;;5025934;28;19924;-78
2022/10/16 11:27:39;;;;;;;;;;;24.10;93.00;;;;;;5035580;28;19917;-77
2022/10/16 11:30:11;;;;;;;;;;;24.10;93.50;;;;;;5047275;28;19995;-77
2022/10/16 11:32:51;;;;;;;;;;;24.10;94.00;;;;;;5045188;28;20481;-77
2022/10/16 11:35:19;;;;;;;;;;;24.20;93.00;;;;;;5044269;28;19920;-77
2022/10/16 11:37:46;;;;;;;;;;;24.10;93.30;;;;;;5055604;28;19917;-79
2022/10/16 11:40:30;;;;;;;;;;;24.10;93.10;;;;;;5048001;28;20191;-81
2022/10/16 11:43:04;;;;;;;;;;;24.20;93.70;;;;;;5031151;28;19996;-79
2022/10/16 11:45:38;;;;;;;;;;;24.30;93.60;;;;;;5054044;28;20035;-79
2022/10/16 11:48:12;;;;;;;;;;;24.30;94.00;;;;;;5036859;28;19964;-78
2022/10/16 11:50:41;;;;;;;;;;;24.30;93.30;;;;;;5050297;28;19929;-80
2022/10/16 11:53:21;;;;;;;;;;;24.40;93.30;;;;;;5059659;28;20429;-82
2022/10/16 11:55:47;;;;;;;;;;;24.30;93.10;;;;;;5049419;28;19944;-80
2022/10/16 11:58:18;;;;;;;;;;;24.10;92.40;;;;;;5052529;28;19920;-80
2022/10/16 12:00:51;;;;;;;;;;;24.20;92.90;;;;;;5042542;28;19978;-81
2022/10/16 12:03:28;;;;;;;;;;;24.20;93.00;;;;;;5041657;28;19990;-80
2022/10/16 12:05:53;;;;;;;;;;;24.20;92.80;;;;;;5048213;28;19917;-81
2022/10/16 12:08:19;;;;;;;;;;;24.20;93.10;;;;;;5044860;28;19924;-80
2022/10/16 12:10:47;;;;;;;;;;;24.10;92.80;;;;;;5029512;28;19917;-79
2022/10/16 12:13:31;;;;;;;;;;;24.10;93.30;;;;;;5023472;28;20083;-80
2022/10/16 12:16:12;;;;;;;;;;;24.20;93.80;;;;;;5042486;28;19939;-81
2022/10/16 12:18:38;;;;;;;;;;;24.20;93.00;;;;;;5047436;28;20791;-81
2022/10/16 12:21:06;;;;;;;;;;;24.20;92.80;;;;;;5018690;28;19975;-81
2022/10/16 12:23:32;;;;;;;;;;;24.30;92.50;;;;;;5030235;28;19917;-79
2022/10/16 12:25:59;;;;;;;;;;;24.40;92.70;;;;;;5050869;28;19916;-80
2022/10/16 12:28:31;;;;;;;;;;;24.40;93.00;;;;;;5050212;28;19917;-81
2022/10/16 12:31:00;;;;;;;;;;;24.50;93.30;;;;;;5039671;28;19923;-80
2022/10/16 12:33:26;;;;;;;;;;;24.50;92.30;;;;;;5044860;28;20311;-80
2022/10/16 12:35:52;;;;;;;;;;;24.40;92.20;;;;;;5034890;28;20000;-80
2022/10/16 12:38:25;;;;;;;;;;;24.40;92.10;;;;;;5023537;28;19925;-81
2022/10/16 12:41:09;;;;;;;;;;;24.40;92.70;;;;;;5048737;28;19917;-80
2022/10/16 12:43:37;;;;;;;;;;;24.50;92.60;;;;;;5044110;28;19913;-80
2022/10/16 12:46:21;;;;;;;;;;;24.40;92.80;;;;;;5049821;28;19917;-80
2022/10/16 12:48:48;;;;;;;;;;;24.40;91.90;;;;;;5051802;28;19979;-80
2022/10/16 12:51:19;;;;;;;;;;;24.30;90.50;;;;;;5036048;28;19966;-80
2022/10/16 12:53:45;;;;;;;;;;;24.30;90.70;;;;;;5049830;28;19956;-82
2022/10/16 12:56:13;;;;;;;;;;;24.30;91.00;;;;;;5034456;28;20393;-82
2022/10/16 12:58:50;;;;;;;;;;;24.20;91.30;;;;;;5055813;28;19917;-83
2022/10/16 13:01:39;;;;;;;;;;;24.20;91.30;;;;;;5044243;28;19924;-81
2022/10/16 13:04:11;;;;;;;;;;;24.30;91.00;;;;;;5038531;28;19923;-82
2022/10/16 13:06:44;;;;;;;;;;;24.30;91.30;;;;;;5052224;28;19916;-81
2022/10/16 13:09:09;;;;;;;;;;;24.40;91.10;;;;;;5030774;28;19920;-80
2022/10/16 13:11:35;;;;;;;;;;;24.60;91.20;;;;;;5048926;28;19916;-80
2022/10/16 13:14:15;;;;;;;;;;;24.60;91.30;;;;;;5038185;28;20467;-81
2022/10/16 13:16:41;;;;;;;;;;;24.70;91.10;;;;;;5030392;28;19920;-81
2022/10/16 13:19:25;;;;;;;;;;;24.80;91.20;;;;;;5043826;28;19927;-80
2022/10/16 13:21:50;;;;;;;;;;;24.80;90.70;;;;;;5030760;28;19966;-81
2022/10/16 13:24:19;;;;;;;;;;;24.70;91.20;;;;;;5059015;28;20748;-79
2022/10/16 13:26:49;;;;;;;;;;;24.70;91.20;;;;;;5050632;28;19962;-81
2022/10/16 13:29:15;;;;;;;;;;;24.60;91.40;;;;;;5048433;28;19912;-80
2022/10/16 13:31:42;;;;;;;;;;;24.60;91.50;;;;;;5047920;28;20777;-80
2022/10/16 13:34:12;;;;;;;;;;;24.60;92.00;;;;;;5047817;28;19963;-81
2022/10/16 13:36:44;;;;;;;;;;;24.60;90.90;;;;;;5049600;28;19912;-80
2022/10/16 13:39:09;;;;;;;;;;;24.50;91.00;;;;;;5048459;28;19920;-80
2022/10/16 13:41:35;;;;;;;;;;;24.40;91.10;;;;;;5031033;28;19913;-81
2022/10/16 13:44:01;;;;;;;;;;;24.30;91.00;;;;;;5051077;28;19912;-81
2022/10/16 13:46:26;;;;;;;;;;;24.20;90.80;;;;;;5048781;28;20012;-80
2022/10/16 13:49:03;;;;;;;;;;;24.20;90.80;;;;;;5048063;28;19912;-81
2022/10/16 13:51:29;;;;;;;;;;;24.10;91.00;;;;;;5049165;28;19940;-81
2022/10/16 13:53:56;;;;;;;;;;;24.10;90.40;;;;;;5048953;28;20669;-80
2022/10/16 13:56:23;;;;;;;;;;;24.10;90.70;;;;;;5048785;28;19913;-81
2022/10/16 13:59:02;;;;;;;;;;;24.10;90.80;;;;;;5048825;28;19920;-81
2022/10/16 14:01:47;;;;;;;;;;;24.00;91.00;;;;;;5030346;28;19925;-80
2022/10/16 14:04:13;;;;;;;;;;;24.00;90.90;;;;;;5048159;28;19996;-80
2022/10/16 14:06:43;;;;;;;;;;;23.90;91.40;;;;;;5049191;28;19959;-80
2022/10/16 14:09:13;;;;;;;;;;;23.80;92.10;;;;;;5048717;28;19974;-80
2022/10/16 14:11:45;;;;;;;;;;;23.80;91.10;;;;;;5048713;28;20299;-82
2022/10/16 14:14:12;;;;;;;;;;;23.80;91.10;;;;;;5048851;28;19913;-80
2022/10/16 14:16:40;;;;;;;;;;;23.70;91.00;;;;;;5048755;28;20895;-80
2022/10/16 14:19:06;;;;;;;;;;;23.70;91.20;;;;;;5048369;28;19920;-80
2022/10/16 14:21:32;;;;;;;;;;;23.70;90.20;;;;;;5053451;28;19912;-80
2022/10/16 14:23:58;;;;;;;;;;;23.70;89.80;;;;;;5048773;28;19943;-80